sensor_id;sensor_type;location;lat;lon;timestamp;P1;durP1;ratioP1;P2;durP2;ratioP2
77152;SDS011;66124;51.146;17.072;2023-03-01T00:02:24;45.40;;;20.30;;
77152;SDS011;66124;51.146;17.072;2023-03-01T00:04:54;52.60;;;24.20;;
77152;SDS011;66124;51.146;17.072;2023-03-01T00:07:23;48.30;;;21.40;;
77152;SDS011;66124;51.146;17.072;2023-03-01T00:09:52;44.80;;;20.90;;
77152;SDS011;66124;51.146;17.072;2023-03-01T00:12:21;45.20;;;20.60;;
77152;SDS011;66124;51.146;17.072;2023-03-01T00:14:51;46.90;;;21.90;;
77152;SDS011;66124;51.146;17.072;2023-03-01T00:17:20;61.70;;;27.20;;
77152;SDS011;66124;51.146;17.072;2023-03-01T00:19:50;51.60;;;22.90;;
77152;SDS011;66124;51.146;17.072;2023-03-01T00:22:19;54.80;;;22.20;;
77152;SDS011;66124;51.146;17.072;2023-03-01T00:24:49;49.50;;;20.10;;
77152;SDS011;66124;51.146;17.072;2023-03-01T00:27:18;49.60;;;21.90;;
77152;SDS011;66124;51.146;17.072;2023-03-01T00:29:48;53.60;;;23.70;;
77152;SDS011;66124;51.146;17.072;2023-03-01T00:32:17;57.70;;;25.90;;
77152;SDS011;66124;51.146;17.072;2023-03-01T00:34:47;49.80;;;21.80;;
77152;SDS011;66124;51.146;17.072;2023-03-01T00:37:16;41.90;;;18.40;;
77152;SDS011;66124;51.146;17.072;2023-03-01T00:39:45;43.80;;;20.30;;
77152;SDS011;66124;51.146;17.072;2023-03-01T00:42:14;51.60;;;24.20;;
77152;SDS011;66124;51.146;17.072;2023-03-01T00:44:44;57.80;;;25.70;;
77152;SDS011;66124;51.146;17.072;2023-03-01T00:47:13;53.00;;;23.70;;
77152;SDS011;66124;51.146;17.072;2023-03-01T00:49:43;51.50;;;23.70;;
77152;SDS011;66124;51.146;17.072;2023-03-01T00:52:12;54.90;;;25.60;;
77152;SDS011;66124;51.146;17.072;2023-03-01T00:54:41;62.40;;;26.50;;
77152;SDS011;66124;51.146;17.072;2023-03-01T00:57:11;55.40;;;25.10;;
77152;SDS011;66124;51.146;17.072;2023-03-01T00:59:40;68.30;;;26.80;;
77152;SDS011;66124;51.146;17.072;2023-03-01T01:02:09;50.60;;;23.70;;
77152;SDS011;66124;51.146;17.072;2023-03-01T01:04:39;52.00;;;24.00;;
77152;SDS011;66124;51.146;17.072;2023-03-01T01:07:08;54.20;;;25.40;;
77152;SDS011;66124;51.146;17.072;2023-03-01T01:09:37;53.30;;;25.10;;
77152;SDS011;66124;51.146;17.072;2023-03-01T01:12:07;48.50;;;19.50;;
77152;SDS011;66124;51.146;17.072;2023-03-01T01:17:42;60.70;;;26.40;;
77152;SDS011;66124;51.146;17.072;2023-03-01T01:20:12;56.60;;;26.80;;
77152;SDS011;66124;51.146;17.072;2023-03-01T01:22:42;64.30;;;27.60;;
77152;SDS011;66124;51.146;17.072;2023-03-01T01:25:11;74.80;;;29.00;;
77152;SDS011;66124;51.146;17.072;2023-03-01T01:27:40;56.40;;;25.10;;
77152;SDS011;66124;51.146;17.072;2023-03-01T01:30:12;69.10;;;26.60;;
77152;SDS011;66124;51.146;17.072;2023-03-01T01:32:41;57.10;;;24.10;;
77152;SDS011;66124;51.146;17.072;2023-03-01T01:35:11;66.70;;;28.60;;
77152;SDS011;66124;51.146;17.072;2023-03-01T01:37:40;82.30;;;33.70;;
77152;SDS011;66124;51.146;17.072;2023-03-01T01:40:12;61.90;;;26.80;;
77152;SDS011;66124;51.146;17.072;2023-03-01T01:42:42;71.80;;;28.70;;
77152;SDS011;66124;51.146;17.072;2023-03-01T01:45:31;78.90;;;32.90;;
77152;SDS011;66124;51.146;17.072;2023-03-01T01:48:03;82.90;;;31.90;;
77152;SDS011;66124;51.146;17.072;2023-03-01T01:50:38;82.70;;;36.20;;
77152;SDS011;66124;51.146;17.072;2023-03-01T01:53:10;76.70;;;29.70;;
77152;SDS011;66124;51.146;17.072;2023-03-01T01:55:45;70.80;;;30.50;;
77152;SDS011;66124;51.146;17.072;2023-03-01T01:58:19;81.00;;;32.30;;
77152;SDS011;66124;51.146;17.072;2023-03-01T02:00:49;63.30;;;27.00;;
77152;SDS011;66124;51.146;17.072;2023-03-01T02:03:20;85.70;;;34.30;;
77152;SDS011;66124;51.146;17.072;2023-03-01T02:05:53;98.10;;;40.60;;
77152;SDS011;66124;51.146;17.072;2023-03-01T02:08:28;97.80;;;40.90;;
77152;SDS011;66124;51.146;17.072;2023-03-01T02:10:59;98.20;;;40.50;;
77152;SDS011;66124;51.146;17.072;2023-03-01T02:13:29;77.20;;;31.10;;
77152;SDS011;66124;51.146;17.072;2023-03-01T02:16:00;70.10;;;27.00;;
77152;SDS011;66124;51.146;17.072;2023-03-01T02:18:33;80.90;;;32.70;;
77152;SDS011;66124;51.146;17.072;2023-03-01T02:21:05;87.00;;;36.00;;
77152;SDS011;66124;51.146;17.072;2023-03-01T02:23:45;86.40;;;33.30;;
77152;SDS011;66124;51.146;17.072;2023-03-01T02:26:17;70.40;;;31.50;;
77152;SDS011;66124;51.146;17.072;2023-03-01T02:28:52;55.80;;;23.30;;
77152;SDS011;66124;51.146;17.072;2023-03-01T02:37:58;74.00;;;33.40;;
77152;SDS011;66124;51.146;17.072;2023-03-01T02:40:28;76.10;;;32.80;;
77152;SDS011;66124;51.146;17.072;2023-03-01T02:43:00;83.10;;;33.50;;
77152;SDS011;66124;51.146;17.072;2023-03-01T02:45:35;78.90;;;32.00;;
77152;SDS011;66124;51.146;17.072;2023-03-01T02:48:05;76.70;;;32.30;;
77152;SDS011;66124;51.146;17.072;2023-03-01T02:50:44;70.50;;;33.00;;
77152;SDS011;66124;51.146;17.072;2023-03-01T02:53:30;74.20;;;30.90;;
77152;SDS011;66124;51.146;17.072;2023-03-01T02:56:07;69.80;;;30.20;;
77152;SDS011;66124;51.146;17.072;2023-03-01T02:58:36;63.80;;;29.00;;
77152;SDS011;66124;51.146;17.072;2023-03-01T03:01:06;65.70;;;29.70;;
77152;SDS011;66124;51.146;17.072;2023-03-01T03:03:35;67.30;;;29.30;;
77152;SDS011;66124;51.146;17.072;2023-03-01T03:06:04;65.70;;;28.90;;
77152;SDS011;66124;51.146;17.072;2023-03-01T03:08:34;68.20;;;28.50;;
77152;SDS011;66124;51.146;17.072;2023-03-01T03:11:03;69.00;;;26.60;;
77152;SDS011;66124;51.146;17.072;2023-03-01T03:13:33;68.40;;;28.60;;
77152;SDS011;66124;51.146;17.072;2023-03-01T03:16:02;71.60;;;28.90;;
77152;SDS011;66124;51.146;17.072;2023-03-01T03:18:32;71.10;;;29.20;;
77152;SDS011;66124;51.146;17.072;2023-03-01T03:21:02;70.80;;;29.20;;
77152;SDS011;66124;51.146;17.072;2023-03-01T03:23:35;70.70;;;28.00;;
77152;SDS011;66124;51.146;17.072;2023-03-01T03:26:04;66.20;;;29.10;;
77152;SDS011;66124;51.146;17.072;2023-03-01T03:28:34;67.70;;;29.80;;
77152;SDS011;66124;51.146;17.072;2023-03-01T03:31:05;65.00;;;27.60;;
77152;SDS011;66124;51.146;17.072;2023-03-01T03:33:35;66.90;;;27.70;;
77152;SDS011;66124;51.146;17.072;2023-03-01T03:36:05;70.00;;;27.70;;
77152;SDS011;66124;51.146;17.072;2023-03-01T03:38:35;65.00;;;29.00;;
77152;SDS011;66124;51.146;17.072;2023-03-01T03:41:07;77.50;;;31.20;;
77152;SDS011;66124;51.146;17.072;2023-03-01T03:43:37;62.40;;;29.40;;
77152;SDS011;66124;51.146;17.072;2023-03-01T03:46:08;76.00;;;31.80;;
77152;SDS011;66124;51.146;17.072;2023-03-01T03:57:33;69.00;;;29.80;;
77152;SDS011;66124;51.146;17.072;2023-03-01T04:00:03;59.90;;;27.90;;
77152;SDS011;66124;51.146;17.072;2023-03-01T04:02:34;61.00;;;27.70;;
77152;SDS011;66124;51.146;17.072;2023-03-01T04:05:05;68.00;;;28.00;;
77152;SDS011;66124;51.146;17.072;2023-03-01T04:07:36;62.40;;;26.90;;
77152;SDS011;66124;51.146;17.072;2023-03-01T04:10:08;64.10;;;27.80;;
77152;SDS011;66124;51.146;17.072;2023-03-01T04:12:39;73.90;;;28.90;;
77152;SDS011;66124;51.146;17.072;2023-03-01T04:15:09;67.70;;;28.70;;
77152;SDS011;66124;51.146;17.072;2023-03-01T04:17:39;65.00;;;28.40;;
77152;SDS011;66124;51.146;17.072;2023-03-01T04:20:11;81.00;;;35.30;;
77152;SDS011;66124;51.146;17.072;2023-03-01T04:22:41;62.00;;;26.40;;
77152;SDS011;66124;51.146;17.072;2023-03-01T04:25:11;68.90;;;26.20;;
77152;SDS011;66124;51.146;17.072;2023-03-01T04:27:41;61.30;;;25.80;;
77152;SDS011;66124;51.146;17.072;2023-03-01T04:30:11;60.90;;;26.40;;
77152;SDS011;66124;51.146;17.072;2023-03-01T04:32:41;64.30;;;27.80;;
77152;SDS011;66124;51.146;17.072;2023-03-01T04:35:11;56.80;;;25.50;;
77152;SDS011;66124;51.146;17.072;2023-03-01T04:37:40;53.00;;;23.80;;
77152;SDS011;66124;51.146;17.072;2023-03-01T04:40:10;49.30;;;20.90;;
77152;SDS011;66124;51.146;17.072;2023-03-01T04:42:40;53.10;;;21.30;;
77152;SDS011;66124;51.146;17.072;2023-03-01T04:45:10;46.60;;;19.50;;
77152;SDS011;66124;51.146;17.072;2023-03-01T04:47:41;47.60;;;21.20;;
77152;SDS011;66124;51.146;17.072;2023-03-01T04:50:13;57.00;;;23.90;;
77152;SDS011;66124;51.146;17.072;2023-03-01T04:52:44;53.70;;;23.30;;
77152;SDS011;66124;51.146;17.072;2023-03-01T04:55:14;55.80;;;22.80;;
77152;SDS011;66124;51.146;17.072;2023-03-01T04:57:44;49.40;;;21.00;;
77152;SDS011;66124;51.146;17.072;2023-03-01T05:00:14;61.90;;;26.50;;
77152;SDS011;66124;51.146;17.072;2023-03-01T05:02:44;59.30;;;25.00;;
77152;SDS011;66124;51.146;17.072;2023-03-01T05:05:13;55.80;;;24.40;;
77152;SDS011;66124;51.146;17.072;2023-03-01T05:07:43;57.50;;;22.10;;
77152;SDS011;66124;51.146;17.072;2023-03-01T05:19:26;61.00;;;26.80;;
77152;SDS011;66124;51.146;17.072;2023-03-01T05:21:53;63.30;;;25.40;;
77152;SDS011;66124;51.146;17.072;2023-03-01T05:24:20;57.40;;;25.70;;
77152;SDS011;66124;51.146;17.072;2023-03-01T05:26:48;57.70;;;23.90;;
77152;SDS011;66124;51.146;17.072;2023-03-01T05:29:15;65.10;;;25.00;;
77152;SDS011;66124;51.146;17.072;2023-03-01T05:31:42;56.60;;;24.90;;
77152;SDS011;66124;51.146;17.072;2023-03-01T05:34:10;44.90;;;20.30;;
77152;SDS011;66124;51.146;17.072;2023-03-01T05:36:37;46.90;;;21.30;;
77152;SDS011;66124;51.146;17.072;2023-03-01T05:50:33;59.90;;;27.50;;
77152;SDS011;66124;51.146;17.072;2023-03-01T05:53:04;54.40;;;25.30;;
77152;SDS011;66124;51.146;17.072;2023-03-01T05:55:35;59.00;;;24.30;;
77152;SDS011;66124;51.146;17.072;2023-03-01T05:58:06;59.30;;;24.40;;
77152;SDS011;66124;51.146;17.072;2023-03-01T06:00:37;55.00;;;24.40;;
77152;SDS011;66124;51.146;17.072;2023-03-01T06:03:09;56.70;;;25.90;;
77152;SDS011;66124;51.146;17.072;2023-03-01T06:05:39;57.40;;;24.30;;
77152;SDS011;66124;51.146;17.072;2023-03-01T06:08:10;56.10;;;24.60;;
77152;SDS011;66124;51.146;17.072;2023-03-01T06:10:40;52.10;;;22.70;;
77152;SDS011;66124;51.146;17.072;2023-03-01T06:13:10;56.40;;;25.60;;
77152;SDS011;66124;51.146;17.072;2023-03-01T06:15:39;50.40;;;23.90;;
77152;SDS011;66124;51.146;17.072;2023-03-01T06:18:09;58.20;;;24.40;;
77152;SDS011;66124;51.146;17.072;2023-03-01T06:20:38;55.00;;;23.70;;
77152;SDS011;66124;51.146;17.072;2023-03-01T06:23:08;55.00;;;23.40;;
77152;SDS011;66124;51.146;17.072;2023-03-01T06:25:37;60.60;;;24.70;;
77152;SDS011;66124;51.146;17.072;2023-03-01T06:28:06;59.00;;;24.80;;
77152;SDS011;66124;51.146;17.072;2023-03-01T06:30:36;51.80;;;22.10;;
77152;SDS011;66124;51.146;17.072;2023-03-01T06:33:05;53.00;;;22.90;;
77152;SDS011;66124;51.146;17.072;2023-03-01T06:35:34;51.10;;;22.60;;
77152;SDS011;66124;51.146;17.072;2023-03-01T06:38:04;49.90;;;22.00;;
77152;SDS011;66124;51.146;17.072;2023-03-01T06:40:35;51.00;;;24.20;;
77152;SDS011;66124;51.146;17.072;2023-03-01T06:43:04;54.20;;;23.00;;
77152;SDS011;66124;51.146;17.072;2023-03-01T06:45:33;49.20;;;21.40;;
77152;SDS011;66124;51.146;17.072;2023-03-01T06:48:04;43.10;;;21.90;;
77152;SDS011;66124;51.146;17.072;2023-03-01T06:50:35;45.70;;;20.70;;
77152;SDS011;66124;51.146;17.072;2023-03-01T06:53:04;47.00;;;21.60;;
77152;SDS011;66124;51.146;17.072;2023-03-01T06:55:33;45.80;;;20.40;;
77152;SDS011;66124;51.146;17.072;2023-03-01T06:58:03;47.90;;;20.50;;
77152;SDS011;66124;51.146;17.072;2023-03-01T07:08:19;48.00;;;22.20;;
77152;SDS011;66124;51.146;17.072;2023-03-01T07:10:48;47.00;;;22.80;;
77152;SDS011;66124;51.146;17.072;2023-03-01T07:13:24;48.40;;;21.90;;
77152;SDS011;66124;51.146;17.072;2023-03-01T07:15:53;48.50;;;22.10;;
77152;SDS011;66124;51.146;17.072;2023-03-01T07:18:22;46.30;;;22.20;;
77152;SDS011;66124;51.146;17.072;2023-03-01T07:20:52;43.00;;;22.10;;
77152;SDS011;66124;51.146;17.072;2023-03-01T07:23:22;49.60;;;23.10;;
77152;SDS011;66124;51.146;17.072;2023-03-01T07:25:54;47.40;;;23.70;;
77152;SDS011;66124;51.146;17.072;2023-03-01T07:28:24;47.00;;;22.60;;
77152;SDS011;66124;51.146;17.072;2023-03-01T07:30:53;42.50;;;20.60;;
77152;SDS011;66124;51.146;17.072;2023-03-01T07:33:28;43.20;;;20.80;;
77152;SDS011;66124;51.146;17.072;2023-03-01T07:35:58;41.40;;;19.40;;
77152;SDS011;66124;51.146;17.072;2023-03-01T07:38:29;36.40;;;18.20;;
77152;SDS011;66124;51.146;17.072;2023-03-01T07:40:59;40.50;;;18.20;;
77152;SDS011;66124;51.146;17.072;2023-03-01T07:43:29;39.50;;;19.60;;
77152;SDS011;66124;51.146;17.072;2023-03-01T07:45:59;42.60;;;19.80;;
77152;SDS011;66124;51.146;17.072;2023-03-01T07:48:29;38.40;;;19.90;;
77152;SDS011;66124;51.146;17.072;2023-03-01T07:51:00;35.50;;;18.70;;
77152;SDS011;66124;51.146;17.072;2023-03-01T07:53:31;38.40;;;19.20;;
77152;SDS011;66124;51.146;17.072;2023-03-01T07:56:01;37.80;;;17.40;;
77152;SDS011;66124;51.146;17.072;2023-03-01T08:01:03;37.00;;;16.90;;
77152;SDS011;66124;51.146;17.072;2023-03-01T08:03:34;29.10;;;14.00;;
77152;SDS011;66124;51.146;17.072;2023-03-01T08:06:04;24.70;;;11.80;;
77152;SDS011;66124;51.146;17.072;2023-03-01T08:08:35;28.50;;;14.60;;
77152;SDS011;66124;51.146;17.072;2023-03-01T08:11:06;26.90;;;14.10;;
77152;SDS011;66124;51.146;17.072;2023-03-01T08:13:38;29.70;;;14.60;;
77152;SDS011;66124;51.146;17.072;2023-03-01T08:16:10;26.20;;;13.60;;
77152;SDS011;66124;51.146;17.072;2023-03-01T08:18:41;24.70;;;11.60;;
77152;SDS011;66124;51.146;17.072;2023-03-01T08:28:05;23.40;;;12.80;;
77152;SDS011;66124;51.146;17.072;2023-03-01T08:30:34;25.70;;;12.80;;
77152;SDS011;66124;51.146;17.072;2023-03-01T08:33:04;24.30;;;13.20;;
77152;SDS011;66124;51.146;17.072;2023-03-01T08:35:33;28.00;;;13.90;;
77152;SDS011;66124;51.146;17.072;2023-03-01T08:38:02;29.10;;;15.20;;
77152;SDS011;66124;51.146;17.072;2023-03-01T08:40:33;28.20;;;14.70;;
77152;SDS011;66124;51.146;17.072;2023-03-01T08:43:02;28.90;;;15.00;;
77152;SDS011;66124;51.146;17.072;2023-03-01T08:45:32;24.90;;;13.60;;
77152;SDS011;66124;51.146;17.072;2023-03-01T08:48:01;24.70;;;12.90;;
77152;SDS011;66124;51.146;17.072;2023-03-01T08:50:30;25.00;;;13.00;;
77152;SDS011;66124;51.146;17.072;2023-03-01T08:53:00;22.10;;;12.00;;
77152;SDS011;66124;51.146;17.072;2023-03-01T08:55:29;24.60;;;12.70;;
77152;SDS011;66124;51.146;17.072;2023-03-01T08:57:58;23.40;;;12.50;;
77152;SDS011;66124;51.146;17.072;2023-03-01T09:00:28;26.70;;;13.80;;
77152;SDS011;66124;51.146;17.072;2023-03-01T09:02:57;20.80;;;11.20;;
77152;SDS011;66124;51.146;17.072;2023-03-01T09:05:26;29.10;;;14.70;;
77152;SDS011;66124;51.146;17.072;2023-03-01T09:07:58;28.10;;;13.20;;
77152;SDS011;66124;51.146;17.072;2023-03-01T09:10:27;22.40;;;12.70;;
77152;SDS011;66124;51.146;17.072;2023-03-01T09:12:57;24.40;;;12.20;;
77152;SDS011;66124;51.146;17.072;2023-03-01T09:15:26;25.20;;;12.60;;
77152;SDS011;66124;51.146;17.072;2023-03-01T09:17:56;24.20;;;13.30;;
77152;SDS011;66124;51.146;17.072;2023-03-01T09:20:25;25.60;;;13.50;;
77152;SDS011;66124;51.146;17.072;2023-03-01T09:22:54;24.70;;;14.30;;
77152;SDS011;66124;51.146;17.072;2023-03-01T09:25:24;24.40;;;12.20;;
77152;SDS011;66124;51.146;17.072;2023-03-01T09:27:54;23.70;;;12.70;;
77152;SDS011;66124;51.146;17.072;2023-03-01T09:30:23;19.40;;;11.00;;
77152;SDS011;66124;51.146;17.072;2023-03-01T09:32:52;16.90;;;10.20;;
77152;SDS011;66124;51.146;17.072;2023-03-01T09:35:23;20.40;;;9.90;;
77152;SDS011;66124;51.146;17.072;2023-03-01T09:50:21;18.40;;;10.70;;
77152;SDS011;66124;51.146;17.072;2023-03-01T09:52:58;22.00;;;11.20;;
77152;SDS011;66124;51.146;17.072;2023-03-01T09:55:31;21.30;;;11.50;;
77152;SDS011;66124;51.146;17.072;2023-03-01T10:01:04;19.90;;;9.80;;
77152;SDS011;66124;51.146;17.072;2023-03-01T10:03:55;20.60;;;11.10;;
77152;SDS011;66124;51.146;17.072;2023-03-01T10:06:33;19.30;;;9.60;;
77152;SDS011;66124;51.146;17.072;2023-03-01T10:09:04;18.30;;;9.40;;
77152;SDS011;66124;51.146;17.072;2023-03-01T10:11:38;18.10;;;10.30;;
77152;SDS011;66124;51.146;17.072;2023-03-01T10:14:15;23.00;;;10.10;;
77152;SDS011;66124;51.146;17.072;2023-03-01T10:16:56;21.20;;;10.00;;
77152;SDS011;66124;51.146;17.072;2023-03-01T10:19:32;19.50;;;10.00;;
77152;SDS011;66124;51.146;17.072;2023-03-01T10:22:15;24.00;;;12.40;;
77152;SDS011;66124;51.146;17.072;2023-03-01T10:24:46;18.30;;;9.50;;
77152;SDS011;66124;51.146;17.072;2023-03-01T10:27:17;18.20;;;8.30;;
77152;SDS011;66124;51.146;17.072;2023-03-01T10:29:53;17.50;;;9.70;;
77152;SDS011;66124;51.146;17.072;2023-03-01T10:32:29;14.30;;;7.50;;
77152;SDS011;66124;51.146;17.072;2023-03-01T10:34:59;14.30;;;6.70;;
77152;SDS011;66124;51.146;17.072;2023-03-01T10:37:28;16.60;;;7.60;;
77152;SDS011;66124;51.146;17.072;2023-03-01T10:39:58;13.60;;;7.50;;
77152;SDS011;66124;51.146;17.072;2023-03-01T10:42:32;14.00;;;6.60;;
77152;SDS011;66124;51.146;17.072;2023-03-01T10:45:16;18.20;;;8.80;;
77152;SDS011;66124;51.146;17.072;2023-03-01T10:48:03;17.80;;;9.50;;
77152;SDS011;66124;51.146;17.072;2023-03-01T10:50:38;17.30;;;9.00;;
77152;SDS011;66124;51.146;17.072;2023-03-01T10:53:20;15.80;;;8.80;;
77152;SDS011;66124;51.146;17.072;2023-03-01T10:55:59;14.70;;;8.30;;
77152;SDS011;66124;51.146;17.072;2023-03-01T11:01:00;12.40;;;7.00;;
77152;SDS011;66124;51.146;17.072;2023-03-01T11:06:21;16.50;;;10.00;;
77152;SDS011;66124;51.146;17.072;2023-03-01T11:08:51;16.70;;;9.60;;
77152;SDS011;66124;51.146;17.072;2023-03-01T11:11:22;15.50;;;9.00;;
77152;SDS011;66124;51.146;17.072;2023-03-01T11:13:57;15.90;;;8.80;;
77152;SDS011;66124;51.146;17.072;2023-03-01T11:16:32;15.40;;;7.90;;
77152;SDS011;66124;51.146;17.072;2023-03-01T11:19:17;12.90;;;7.80;;
77152;SDS011;66124;51.146;17.072;2023-03-01T11:21:56;12.90;;;7.50;;
77152;SDS011;66124;51.146;17.072;2023-03-01T11:24:31;14.50;;;8.30;;
77152;SDS011;66124;51.146;17.072;2023-03-01T11:27:07;18.20;;;9.60;;
77152;SDS011;66124;51.146;17.072;2023-03-01T11:29:44;17.20;;;9.20;;
77152;SDS011;66124;51.146;17.072;2023-03-01T11:32:16;13.90;;;8.60;;
77152;SDS011;66124;51.146;17.072;2023-03-01T11:34:50;17.70;;;11.90;;
77152;SDS011;66124;51.146;17.072;2023-03-01T11:37:28;16.20;;;9.80;;
77152;SDS011;66124;51.146;17.072;2023-03-01T11:40:10;16.70;;;10.80;;
77152;SDS011;66124;51.146;17.072;2023-03-01T11:42:52;17.80;;;10.70;;
77152;SDS011;66124;51.146;17.072;2023-03-01T11:45:33;18.60;;;11.80;;
77152;SDS011;66124;51.146;17.072;2023-03-01T11:48:21;17.80;;;10.80;;
77152;SDS011;66124;51.146;17.072;2023-03-01T11:51:05;16.20;;;10.40;;
77152;SDS011;66124;51.146;17.072;2023-03-01T11:53:49;18.20;;;10.70;;
77152;SDS011;66124;51.146;17.072;2023-03-01T11:56:28;16.50;;;11.00;;
77152;SDS011;66124;51.146;17.072;2023-03-01T11:59:10;14.80;;;9.40;;
77152;SDS011;66124;51.146;17.072;2023-03-01T12:04:47;15.00;;;9.90;;
77152;SDS011;66124;51.146;17.072;2023-03-01T12:07:32;14.70;;;8.90;;
77152;SDS011;66124;51.146;17.072;2023-03-01T12:10:22;12.70;;;8.60;;
77152;SDS011;66124;51.146;17.072;2023-03-01T12:12:58;8.90;;;6.00;;
77152;SDS011;66124;51.146;17.072;2023-03-01T12:15:50;10.10;;;6.70;;
77152;SDS011;66124;51.146;17.072;2023-03-01T12:27:46;10.30;;;7.60;;
77152;SDS011;66124;51.146;17.072;2023-03-01T12:30:30;11.30;;;7.60;;
77152;SDS011;66124;51.146;17.072;2023-03-01T12:33:13;10.90;;;7.20;;
77152;SDS011;66124;51.146;17.072;2023-03-01T12:35:57;9.60;;;7.10;;
77152;SDS011;66124;51.146;17.072;2023-03-01T12:38:45;9.10;;;6.00;;
77152;SDS011;66124;51.146;17.072;2023-03-01T12:41:37;9.60;;;6.60;;
77152;SDS011;66124;51.146;17.072;2023-03-01T12:44:20;11.30;;;6.60;;
77152;SDS011;66124;51.146;17.072;2023-03-01T12:47:05;8.90;;;7.10;;
77152;SDS011;66124;51.146;17.072;2023-03-01T12:49:41;8.70;;;6.60;;
77152;SDS011;66124;51.146;17.072;2023-03-01T12:52:15;11.30;;;8.70;;
77152;SDS011;66124;51.146;17.072;2023-03-01T12:54:48;11.30;;;8.40;;
77152;SDS011;66124;51.146;17.072;2023-03-01T12:57:23;11.10;;;8.10;;
77152;SDS011;66124;51.146;17.072;2023-03-01T13:00:00;11.80;;;7.90;;
77152;SDS011;66124;51.146;17.072;2023-03-01T13:02:39;12.40;;;8.90;;
77152;SDS011;66124;51.146;17.072;2023-03-01T13:05:22;10.20;;;7.90;;
77152;SDS011;66124;51.146;17.072;2023-03-01T13:07:58;11.10;;;9.00;;
77152;SDS011;66124;51.146;17.072;2023-03-01T13:10:34;12.60;;;8.90;;
77152;SDS011;66124;51.146;17.072;2023-03-01T13:13:14;11.70;;;9.40;;
77152;SDS011;66124;51.146;17.072;2023-03-01T13:15:48;14.00;;;10.50;;
77152;SDS011;66124;51.146;17.072;2023-03-01T13:18:29;11.10;;;9.10;;
77152;SDS011;66124;51.146;17.072;2023-03-01T13:21:01;12.60;;;9.40;;
77152;SDS011;66124;51.146;17.072;2023-03-01T13:23:33;13.00;;;9.50;;
77152;SDS011;66124;51.146;17.072;2023-03-01T13:26:14;11.00;;;8.90;;
77152;SDS011;66124;51.146;17.072;2023-03-01T13:28:55;12.70;;;9.70;;
77152;SDS011;66124;51.146;17.072;2023-03-01T13:34:46;16.80;;;10.90;;
77152;SDS011;66124;51.146;17.072;2023-03-01T13:37:36;14.30;;;10.40;;
77152;SDS011;66124;51.146;17.072;2023-03-01T13:45:34;12.90;;;10.20;;
77152;SDS011;66124;51.146;17.072;2023-03-01T13:48:09;12.90;;;10.20;;
77152;SDS011;66124;51.146;17.072;2023-03-01T13:50:45;12.30;;;10.50;;
77152;SDS011;66124;51.146;17.072;2023-03-01T13:53:21;13.10;;;10.10;;
77152;SDS011;66124;51.146;17.072;2023-03-01T13:55:55;13.20;;;10.30;;
77152;SDS011;66124;51.146;17.072;2023-03-01T13:58:28;11.30;;;9.50;;
77152;SDS011;66124;51.146;17.072;2023-03-01T14:01:00;12.40;;;9.50;;
77152;SDS011;66124;51.146;17.072;2023-03-01T14:03:31;12.30;;;9.90;;
77152;SDS011;66124;51.146;17.072;2023-03-01T14:06:08;12.50;;;9.90;;
77152;SDS011;66124;51.146;17.072;2023-03-01T14:08:41;11.80;;;10.20;;
77152;SDS011;66124;51.146;17.072;2023-03-01T14:14:25;12.00;;;10.70;;
77152;SDS011;66124;51.146;17.072;2023-03-01T14:17:07;12.60;;;10.20;;
77152;SDS011;66124;51.146;17.072;2023-03-01T14:19:56;12.50;;;10.60;;
77152;SDS011;66124;51.146;17.072;2023-03-01T14:22:29;11.70;;;10.40;;
77152;SDS011;66124;51.146;17.072;2023-03-01T14:25:01;12.70;;;9.50;;
77152;SDS011;66124;51.146;17.072;2023-03-01T14:27:34;11.80;;;10.60;;
77152;SDS011;66124;51.146;17.072;2023-03-01T14:30:12;13.50;;;10.30;;
77152;SDS011;66124;51.146;17.072;2023-03-01T14:32:52;12.90;;;10.40;;
77152;SDS011;66124;51.146;17.072;2023-03-01T14:35:25;12.70;;;10.40;;
77152;SDS011;66124;51.146;17.072;2023-03-01T14:37:55;12.50;;;10.70;;
77152;SDS011;66124;51.146;17.072;2023-03-01T14:40:26;11.40;;;10.20;;
77152;SDS011;66124;51.146;17.072;2023-03-01T14:42:58;12.00;;;10.40;;
77152;SDS011;66124;51.146;17.072;2023-03-01T14:45:29;11.40;;;10.30;;
77152;SDS011;66124;51.146;17.072;2023-03-01T14:48:00;13.70;;;11.10;;
77152;SDS011;66124;51.146;17.072;2023-03-01T14:50:33;15.00;;;11.10;;
77152;SDS011;66124;51.146;17.072;2023-03-01T14:53:12;12.50;;;10.00;;
77152;SDS011;66124;51.146;17.072;2023-03-01T15:03:06;15.40;;;12.00;;
77152;SDS011;66124;51.146;17.072;2023-03-01T15:05:40;13.30;;;10.70;;
77152;SDS011;66124;51.146;17.072;2023-03-01T15:08:15;14.50;;;10.80;;
77152;SDS011;66124;51.146;17.072;2023-03-01T15:10:56;13.70;;;10.70;;
77152;SDS011;66124;51.146;17.072;2023-03-01T15:13:30;14.00;;;11.10;;
77152;SDS011;66124;51.146;17.072;2023-03-01T15:16:05;15.60;;;10.20;;
77152;SDS011;66124;51.146;17.072;2023-03-01T15:18:37;14.90;;;10.90;;
77152;SDS011;66124;51.146;17.072;2023-03-01T15:21:15;17.80;;;9.80;;
77152;SDS011;66124;51.146;17.072;2023-03-01T15:23:49;14.60;;;10.30;;
77152;SDS011;66124;51.146;17.072;2023-03-01T15:26:26;16.80;;;10.00;;
77152;SDS011;66124;51.146;17.072;2023-03-01T15:28:58;14.90;;;9.60;;
77152;SDS011;66124;51.146;17.072;2023-03-01T15:31:29;14.70;;;9.00;;
77152;SDS011;66124;51.146;17.072;2023-03-01T15:34:10;14.20;;;9.00;;
77152;SDS011;66124;51.146;17.072;2023-03-01T15:36:49;14.90;;;8.90;;
77152;SDS011;66124;51.146;17.072;2023-03-01T15:39:34;13.30;;;8.40;;
77152;SDS011;66124;51.146;17.072;2023-03-01T15:42:07;20.60;;;10.90;;
77152;SDS011;66124;51.146;17.072;2023-03-01T15:44:37;16.30;;;9.10;;
77152;SDS011;66124;51.146;17.072;2023-03-01T15:47:21;15.30;;;8.50;;
77152;SDS011;66124;51.146;17.072;2023-03-01T15:49:53;16.70;;;8.40;;
77152;SDS011;66124;51.146;17.072;2023-03-01T15:52:25;16.10;;;8.90;;
77152;SDS011;66124;51.146;17.072;2023-03-01T15:54:56;15.20;;;8.00;;
77152;SDS011;66124;51.146;17.072;2023-03-01T15:57:28;14.20;;;8.80;;
77152;SDS011;66124;51.146;17.072;2023-03-01T15:59:58;14.30;;;7.90;;
77152;SDS011;66124;51.146;17.072;2023-03-01T16:02:27;15.20;;;8.30;;
77152;SDS011;66124;51.146;17.072;2023-03-01T16:04:57;14.80;;;8.20;;
77152;SDS011;66124;51.146;17.072;2023-03-01T16:07:26;15.50;;;8.50;;
77152;SDS011;66124;51.146;17.072;2023-03-01T16:09:55;17.10;;;9.70;;
77152;SDS011;66124;51.146;17.072;2023-03-01T16:12:25;11.20;;;6.30;;
77152;SDS011;66124;51.146;17.072;2023-03-01T16:22:38;21.90;;;12.20;;
77152;SDS011;66124;51.146;17.072;2023-03-01T16:25:08;17.80;;;10.00;;
77152;SDS011;66124;51.146;17.072;2023-03-01T16:27:41;18.10;;;10.20;;
77152;SDS011;66124;51.146;17.072;2023-03-01T16:30:12;15.60;;;8.80;;
77152;SDS011;66124;51.146;17.072;2023-03-01T16:32:43;18.20;;;9.50;;
77152;SDS011;66124;51.146;17.072;2023-03-01T16:35:15;25.20;;;13.00;;
77152;SDS011;66124;51.146;17.072;2023-03-01T16:37:49;29.90;;;14.50;;
77152;SDS011;66124;51.146;17.072;2023-03-01T16:40:19;34.70;;;16.80;;